Time;durP1;ratioP1;P1;durP2;ratioP2;P2;SDS_P1;SDS_P2;PMS_P1;PMS_P2;Temp;Humidity;BMP_temperature;BMP_pressure;BME280_temperature;BME280_humidity;BME280_pressure;Samples;Min_cycle;Max_cycle;Signal;HPM_P1;HPM_P2
2021/04/12 00:05:08;;;;;;;4.27;1.80;;;;;;;;;;10406077;28;20883;-75
2021/04/12 00:10:12;;;;;;;4.83;2.23;;;;;;;;;;10411597;28;20211;-76
2021/04/12 00:15:19;;;;;;;4.03;1.70;;;;;;;;;;10406490;28;20239;-75
2021/04/12 00:20:24;;;;;;;4.80;1.67;;;;;;;;;;10409445;28;20626;-75
2021/04/12 00:25:28;;;;;;;3.63;1.73;;;;;;;;;;10412163;28;20239;-75
2021/04/12 00:30:34;;;;;;;3.47;1.70;;;;;;;;;;10409214;28;20238;-73
2021/04/12 00:35:38;;;;;;;4.47;1.90;;;;;;;;;;10410332;28;20273;-75
2021/04/12 00:40:43;;;;;;;4.50;1.80;;;;;;;;;;10407445;28;20214;-75
2021/04/12 00:45:55;;;;;;;4.00;1.50;;;;;;;;;;10413641;28;20231;-75
2021/04/12 00:51:02;;;;;;;3.20;1.60;;;;;;;;;;10421468;28;20212;-75
2021/04/12 00:56:06;;;;;;;3.23;1.83;;;;;;;;;;10411609;28;20243;-75
2021/04/12 01:01:18;;;;;;;3.40;1.70;;;;;;;;;;10420483;28;20242;-74
2021/04/12 01:06:26;;;;;;;3.47;1.80;;;;;;;;;;10416913;28;20207;-74
2021/04/12 01:11:48;;;;;;;3.83;1.83;;;;;;;;;;10409566;28;20236;-74
2021/04/12 01:17:01;;;;;;;5.00;1.90;;;;;;;;;;10414976;28;20234;-74
2021/04/12 01:22:22;;;;;;;3.83;1.60;;;;;;;;;;10411496;28;20212;-74
2021/04/12 01:27:38;;;;;;;3.43;1.80;;;;;;;;;;10418221;28;20246;-74
2021/04/12 01:32:59;;;;;;;2.80;1.70;;;;;;;;;;10388510;28;20212;-73
2021/04/12 01:38:05;;;;;;;4.57;1.90;;;;;;;;;;10414827;28;20270;-74
2021/04/12 01:43:10;;;;;;;4.30;2.00;;;;;;;;;;10412965;28;20227;-75
2021/04/12 01:48:30;;;;;;;4.83;2.00;;;;;;;;;;10415061;28;21198;-74
2021/04/12 01:53:41;;;;;;;5.13;2.17;;;;;;;;;;10410543;28;20208;-73
2021/04/12 01:58:45;;;;;;;4.23;2.10;;;;;;;;;;10411212;28;20249;-74
2021/04/12 02:03:52;;;;;;;2.83;1.90;;;;;;;;;;10415086;28;20216;-74
2021/04/12 02:08:58;;;;;;;3.77;1.90;;;;;;;;;;10414422;28;20642;-74
2021/04/12 02:14:09;;;;;;;2.83;1.60;;;;;;;;;;10409339;28;20227;-74
2021/04/12 02:19:14;;;;;;;5.70;1.77;;;;;;;;;;10415081;28;20239;-74
2021/04/12 02:24:22;;;;;;;3.13;1.50;;;;;;;;;;10411276;28;20245;-75
2021/04/12 02:29:29;;;;;;;4.70;1.43;;;;;;;;;;10410024;28;20211;-75
2021/04/12 02:34:35;;;;;;;3.83;1.30;;;;;;;;;;10409158;28;20207;-74
2021/04/12 02:39:51;;;;;;;2.00;1.33;;;;;;;;;;10412632;28;20242;-74
2021/04/12 02:45:00;;;;;;;4.00;1.37;;;;;;;;;;10407110;28;20289;-75
2021/04/12 02:50:06;;;;;;;3.77;1.30;;;;;;;;;;10414110;28;20216;-75
2021/04/12 02:55:25;;;;;;;2.17;1.10;;;;;;;;;;10411354;28;20235;-75
2021/04/12 03:00:32;;;;;;;1.97;1.13;;;;;;;;;;10408882;28;20690;-74
2021/04/12 03:05:48;;;;;;;1.37;0.90;;;;;;;;;;10411653;28;20204;-74
2021/04/12 03:10:58;;;;;;;1.77;1.03;;;;;;;;;;10409555;28;20269;-75
2021/04/12 03:16:16;;;;;;;2.93;1.00;;;;;;;;;;10411117;28;21025;-74
2021/04/12 03:21:36;;;;;;;1.57;1.03;;;;;;;;;;10409693;28;20230;-74
2021/04/12 03:26:47;;;;;;;1.87;0.83;;;;;;;;;;10408261;28;20218;-74
2021/04/12 03:32:06;;;;;;;1.97;1.10;;;;;;;;;;10409080;28;20684;-74
2021/04/12 03:37:18;;;;;;;3.63;1.30;;;;;;;;;;10408560;28;20266;-74
2021/04/12 03:42:44;;;;;;;3.57;1.17;;;;;;;;;;10405527;28;20216;-75
2021/04/12 03:48:04;;;;;;;3.40;1.27;;;;;;;;;;10392928;28;20222;-74
2021/04/12 03:53:19;;;;;;;3.77;1.23;;;;;;;;;;10405354;28;20207;-74
2021/04/12 03:58:35;;;;;;;4.30;1.20;;;;;;;;;;10407697;28;20245;-74
2021/04/12 04:03:53;;;;;;;1.87;1.00;;;;;;;;;;10410689;28;20211;-75
2021/04/12 04:09:13;;;;;;;2.37;1.20;;;;;;;;;;10408352;28;20215;-75
2021/04/12 04:14:34;;;;;;;2.23;1.20;;;;;;;;;;10412740;28;20415;-74
2021/04/12 04:19:48;;;;;;;4.20;1.30;;;;;;;;;;10409779;28;20242;-74
2021/04/12 04:25:07;;;;;;;4.47;1.40;;;;;;;;;;10408540;28;20222;-74
2021/04/12 04:30:23;;;;;;;3.90;1.37;;;;;;;;;;10400277;28;20220;-74
2021/04/12 04:35:58;;;;;;;3.10;1.33;;;;;;;;;;10411038;28;20935;-75
2021/04/12 04:41:15;;;;;;;1.17;1.00;;;;;;;;;;10406722;28;20307;-75
2021/04/12 04:46:25;;;;;;;2.20;1.20;;;;;;;;;;10406706;28;20877;-76
2021/04/12 04:51:36;;;;;;;2.50;1.20;;;;;;;;;;10406945;28;20208;-75
2021/04/12 04:56:45;;;;;;;1.83;1.43;;;;;;;;;;10412542;28;20358;-76
2021/04/12 05:01:53;;;;;;;2.47;1.40;;;;;;;;;;10408156;28;20227;-75
2021/04/12 05:07:16;;;;;;;3.47;1.50;;;;;;;;;;10411215;28;20574;-75
2021/04/12 05:12:35;;;;;;;2.47;1.30;;;;;;;;;;10383056;28;20435;-76
2021/04/12 05:17:55;;;;;;;2.90;1.73;;;;;;;;;;10411352;28;20227;-76
2021/04/12 05:23:03;;;;;;;3.80;1.60;;;;;;;;;;10408542;28;20212;-75
2021/04/12 05:28:20;;;;;;;3.00;1.80;;;;;;;;;;10412277;28;20238;-76
2021/04/12 05:33:37;;;;;;;2.63;1.50;;;;;;;;;;10415800;28;20222;-75
2021/04/12 05:39:03;;;;;;;2.67;1.30;;;;;;;;;;10415310;28;20424;-75
2021/04/12 05:44:32;;;;;;;2.23;1.43;;;;;;;;;;10392349;28;20248;-75
2021/04/12 05:49:52;;;;;;;2.13;1.43;;;;;;;;;;10379405;28;21002;-75
2021/04/12 05:55:01;;;;;;;4.43;2.00;;;;;;;;;;10393640;28;20215;-75
2021/04/12 06:00:14;;;;;;;4.73;1.90;;;;;;;;;;10414100;28;20242;-74
2021/04/12 06:05:21;;;;;;;5.03;1.70;;;;;;;;;;10410710;28;20289;-75
2021/04/12 06:10:32;;;;;;;2.93;1.60;;;;;;;;;;10387624;28;20216;-75
2021/04/12 06:15:45;;;;;;;3.33;1.83;;;;;;;;;;10407911;28;20212;-74
2021/04/12 06:21:06;;;;;;;2.67;1.70;;;;;;;;;;10391852;28;21025;-74
2021/04/12 06:26:35;;;;;;;2.47;1.60;;;;;;;;;;10416617;28;20547;-75
2021/04/12 06:31:50;;;;;;;5.07;1.87;;;;;;;;;;10408586;28;21180;-73
2021/04/12 06:36:58;;;;;;;5.80;2.13;;;;;;;;;;10411011;28;20646;-73
2021/04/12 06:42:22;;;;;;;4.30;1.77;;;;;;;;;;10404296;28;20712;-74
2021/04/12 06:47:35;;;;;;;6.17;1.43;;;;;;;;;;10395750;28;20334;-75
2021/04/12 06:52:56;;;;;;;3.63;1.43;;;;;;;;;;10401776;28;20392;-73
2021/04/12 06:58:21;;;;;;;3.63;1.50;;;;;;;;;;10410229;28;20235;-74
2021/04/12 07:03:53;;;;;;;6.93;1.70;;;;;;;;;;10391993;28;20216;-74
2021/04/12 07:09:07;;;;;;;4.03;1.43;;;;;;;;;;10412171;28;20215;-75
2021/04/12 07:14:37;;;;;;;2.83;1.60;;;;;;;;;;10408659;28;20957;-75
2021/04/12 07:20:00;;;;;;;3.37;1.60;;;;;;;;;;10415263;28;20226;-74
2021/04/12 07:25:19;;;;;;;3.20;1.60;;;;;;;;;;10403464;28;20247;-74
2021/04/12 07:30:40;;;;;;;1.67;1.37;;;;;;;;;;10369259;28;20219;-75
2021/04/12 07:35:58;;;;;;;3.20;1.80;;;;;;;;;;10410347;28;20219;-73
2021/04/12 07:41:18;;;;;;;4.47;1.73;;;;;;;;;;10412391;28;20215;-73
2021/04/12 07:46:34;;;;;;;5.67;1.77;;;;;;;;;;10406782;28;20215;-75
2021/04/12 07:51:57;;;;;;;5.10;1.80;;;;;;;;;;10407236;28;20210;-75
2021/04/12 07:57:26;;;;;;;5.47;1.50;;;;;;;;;;10397909;28;20408;-74
2021/04/12 08:02:54;;;;;;;3.87;1.47;;;;;;;;;;10407976;28;20235;-78
2021/04/12 08:08:11;;;;;;;2.90;1.50;;;;;;;;;;10410400;28;20219;-76
2021/04/12 08:13:29;;;;;;;3.43;1.37;;;;;;;;;;10413185;28;20223;-75
2021/04/12 08:18:44;;;;;;;3.33;1.60;;;;;;;;;;10405590;28;20230;-76
2021/04/12 08:24:13;;;;;;;2.17;1.40;;;;;;;;;;10411467;28;20207;-77
2021/04/12 08:29:56;;;;;;;3.10;1.80;;;;;;;;;;10407559;28;20712;-74
2021/04/12 08:35:16;;;;;;;3.93;1.93;;;;;;;;;;10410307;28;20778;-75
2021/04/12 08:40:24;;;;;;;4.80;1.93;;;;;;;;;;10405909;28;20740;-76
2021/04/12 08:45:42;;;;;;;2.40;1.70;;;;;;;;;;10407094;28;20222;-78
2021/04/12 08:51:08;;;;;;;5.07;1.90;;;;;;;;;;10405116;28;20219;-77
2021/04/12 08:56:31;;;;;;;3.30;1.60;;;;;;;;;;10382003;28;20660;-77
2021/04/12 09:01:51;;;;;;;2.90;1.40;;;;;;;;;;10389075;28;20249;-77
2021/04/12 09:07:18;;;;;;;3.13;1.30;;;;;;;;;;10413705;28;20222;-78
2021/04/12 09:12:38;;;;;;;1.73;1.30;;;;;;;;;;10410892;28;20219;-77
2021/04/12 09:17:57;;;;;;;1.67;1.33;;;;;;;;;;10414977;28;20235;-74
2021/04/12 09:23:17;;;;;;;2.10;1.20;;;;;;;;;;10401051;28;20713;-74
2021/04/12 09:28:37;;;;;;;2.40;1.40;;;;;;;;;;10407243;28;20491;-74
2021/04/12 09:33:56;;;;;;;1.67;1.13;;;;;;;;;;10414343;28;20624;-75
2021/04/12 09:39:05;;;;;;;2.37;1.30;;;;;;;;;;10409877;28;20556;-74
2021/04/12 09:44:22;;;;;;;1.60;1.30;;;;;;;;;;10412590;28;20223;-73
2021/04/12 09:49:36;;;;;;;2.07;1.10;;;;;;;;;;10414004;28;20298;-74
2021/04/12 09:54:55;;;;;;;2.17;1.40;;;;;;;;;;10416681;28;20214;-75
2021/04/12 10:00:02;;;;;;;1.33;1.20;;;;;;;;;;10394056;28;20266;-74
2021/04/12 10:05:14;;;;;;;1.60;1.40;;;;;;;;;;10418622;28;20215;-73
2021/04/12 10:10:17;;;;;;;3.07;1.60;;;;;;;;;;10414912;28;20212;-74
2021/04/12 10:15:21;;;;;;;2.10;1.90;;;;;;;;;;10411079;28;20220;-74
2021/04/12 10:20:27;;;;;;;2.30;1.60;;;;;;;;;;10407469;28;20242;-74
2021/04/12 10:25:33;;;;;;;1.87;1.77;;;;;;;;;;10411970;28;20307;-74
2021/04/12 10:30:39;;;;;;;2.30;1.83;;;;;;;;;;10405829;28;20569;-74
2021/04/12 10:35:45;;;;;;;2.03;1.83;;;;;;;;;;10416067;28;20227;-74
2021/04/12 10:40:49;;;;;;;2.07;1.87;;;;;;;;;;10408287;28;20459;-73
2021/04/12 10:46:15;;;;;;;3.00;1.70;;;;;;;;;;10410793;28;20250;-74
2021/04/12 10:51:27;;;;;;;2.43;1.60;;;;;;;;;;10409733;28;20208;-76
2021/04/12 10:56:34;;;;;;;3.03;1.90;;;;;;;;;;10412478;28;20265;-78
2021/04/12 11:01:42;;;;;;;6.87;3.00;;;;;;;;;;10411655;28;20240;-77
2021/04/12 11:06:49;;;;;;;8.73;2.70;;;;;;;;;;10410689;28;20207;-76
2021/04/12 11:11:55;;;;;;;3.47;2.00;;;;;;;;;;10411856;28;20935;-77
2021/04/12 11:16:59;;;;;;;4.27;2.20;;;;;;;;;;10405827;28;20313;-77
2021/04/12 11:22:06;;;;;;;3.33;2.00;;;;;;;;;;10408707;28;20479;-76
2021/04/12 11:27:41;;;;;;;4.07;2.07;;;;;;;;;;10396797;28;20390;-74
2021/04/12 11:32:48;;;;;;;4.27;2.53;;;;;;;;;;10409441;28;20225;-74
2021/04/12 11:37:55;;;;;;;5.47;1.90;;;;;;;;;;10405158;28;20719;-75
2021/04/12 11:43:00;;;;;;;5.97;2.30;;;;;;;;;;10404721;28;20211;-73
2021/04/12 11:48:05;;;;;;;4.00;2.03;;;;;;;;;;10405617;28;20211;-74
2021/04/12 11:53:13;;;;;;;1.90;1.70;;;;;;;;;;10408090;28;20570;-77
2021/04/12 11:58:16;;;;;;;4.27;1.70;;;;;;;;;;10403725;28;20235;-73
2021/04/12 12:03:22;;;;;;;1.90;1.23;;;;;;;;;;10409624;28;20255;-75
2021/04/12 12:08:27;;;;;;;3.40;1.40;;;;;;;;;;10409848;28;20338;-74
2021/04/12 12:13:34;;;;;;;2.50;1.60;;;;;;;;;;10402954;28;20224;-73
2021/04/12 12:18:37;;;;;;;2.77;1.50;;;;;;;;;;10406216;28;20298;-75
2021/04/12 12:23:41;;;;;;;4.47;1.73;;;;;;;;;;10401770;28;20214;-75
2021/04/12 12:28:46;;;;;;;2.23;1.40;;;;;;;;;;10408499;28;20211;-75
2021/04/12 12:33:52;;;;;;;5.03;1.70;;;;;;;;;;10408296;28;20227;-75
2021/04/12 12:39:03;;;;;;;2.00;1.80;;;;;;;;;;10411208;28;20250;-74
2021/04/12 12:44:07;;;;;;;4.07;1.90;;;;;;;;;;10411360;28;20226;-74
2021/04/12 12:49:11;;;;;;;4.57;2.13;;;;;;;;;;10418435;28;20216;-74
2021/04/12 12:54:17;;;;;;;6.00;1.90;;;;;;;;;;10412718;28;20204;-75
2021/04/12 12:59:25;;;;;;;8.43;2.13;;;;;;;;;;10415674;28;20958;-73
2021/04/12 13:04:28;;;;;;;5.47;1.80;;;;;;;;;;10398244;28;20216;-76
2021/04/12 13:09:34;;;;;;;3.27;1.87;;;;;;;;;;10412282;28;20220;-73
2021/04/12 13:14:38;;;;;;;3.00;1.83;;;;;;;;;;10415147;28;20274;-76
2021/04/12 13:19:44;;;;;;;5.50;1.83;;;;;;;;;;10412654;28;20232;-74
2021/04/12 13:24:48;;;;;;;5.00;1.80;;;;;;;;;;10416946;28;20212;-75
2021/04/12 13:30:04;;;;;;;3.30;2.00;;;;;;;;;;10409904;28;20588;-74
2021/04/12 13:35:08;;;;;;;7.07;2.33;;;;;;;;;;10413267;28;20212;-76
2021/04/12 13:40:19;;;;;;;6.77;2.33;;;;;;;;;;10408295;28;20231;-76
2021/04/12 13:45:26;;;;;;;6.20;2.43;;;;;;;;;;10410855;28;20270;-74
2021/04/12 13:50:31;;;;;;;4.40;1.98;;;;;;;;;;10405740;28;20813;-74
2021/04/12 13:55:36;;;;;;;5.23;2.23;;;;;;;;;;10416717;28;20465;-77
2021/04/12 14:00:42;;;;;;;2.60;1.80;;;;;;;;;;10410351;28;20588;-76
2021/04/12 14:05:53;;;;;;;3.43;1.80;;;;;;;;;;10412925;28;20216;-77
2021/04/12 14:10:58;;;;;;;4.40;1.70;;;;;;;;;;10413043;28;20250;-78
2021/04/12 14:16:02;;;;;;;6.00;1.87;;;;;;;;;;10409297;28;20314;-77
2021/04/12 14:21:06;;;;;;;3.47;2.00;;;;;;;;;;10413442;28;20247;-77
2021/04/12 14:26:12;;;;;;;4.80;2.00;;;;;;;;;;10409762;28;20585;-76
2021/04/12 14:31:19;;;;;;;4.13;1.70;;;;;;;;;;10409993;28;20224;-74
2021/04/12 14:36:23;;;;;;;3.27;1.90;;;;;;;;;;10411950;28;20589;-79
2021/04/12 14:41:29;;;;;;;4.10;2.10;;;;;;;;;;10410289;28;20275;-75
2021/04/12 14:46:33;;;;;;;5.77;2.00;;;;;;;;;;10411549;28;20218;-77
2021/04/12 14:51:36;;;;;;;8.00;1.73;;;;;;;;;;10407320;28;20327;-75
2021/04/12 14:56:43;;;;;;;4.63;1.90;;;;;;;;;;10411602;28;20302;-74
2021/04/12 15:01:46;;;;;;;3.57;1.80;;;;;;;;;;10406615;28;20244;-76
2021/04/12 15:06:49;;;;;;;5.13;1.90;;;;;;;;;;10411806;28;20218;-76
2021/04/12 15:11:55;;;;;;;4.77;2.10;;;;;;;;;;10387346;28;20722;-77
2021/04/12 15:16:59;;;;;;;3.33;1.93;;;;;;;;;;10411942;28;20220;-77
2021/04/12 15:22:02;;;;;;;5.27;1.93;;;;;;;;;;10407400;28;20289;-77
2021/04/12 15:27:13;;;;;;;5.37;2.03;;;;;;;;;;10409051;28;20222;-76
2021/04/12 15:32:18;;;;;;;5.37;2.70;;;;;;;;;;10404632;28;20237;-76
2021/04/12 15:37:21;;;;;;;4.70;2.73;;;;;;;;;;10411474;28;20251;-77
2021/04/12 15:42:25;;;;;;;7.13;2.93;;;;;;;;;;10406813;28;20226;-75
2021/04/12 15:47:28;;;;;;;4.03;2.30;;;;;;;;;;10407176;28;20223;-75
2021/04/12 15:52:34;;;;;;;5.50;2.60;;;;;;;;;;10406628;28;20632;-77
2021/04/12 15:57:38;;;;;;;4.50;2.23;;;;;;;;;;10406066;28;20308;-75
2021/04/12 16:02:43;;;;;;;5.73;1.83;;;;;;;;;;10408954;28;20334;-74
2021/04/12 16:07:47;;;;;;;5.40;2.20;;;;;;;;;;10405005;28;20305;-77
2021/04/12 16:13:00;;;;;;;6.70;2.17;;;;;;;;;;10404973;28;20326;-76
2021/04/12 16:18:05;;;;;;;3.43;2.00;;;;;;;;;;10407482;28;20240;-77
2021/04/12 16:23:12;;;;;;;4.87;2.13;;;;;;;;;;10411565;28;20220;-75
2021/04/12 16:28:19;;;;;;;3.60;2.10;;;;;;;;;;10386551;28;20601;-75
2021/04/12 16:33:26;;;;;;;4.10;1.97;;;;;;;;;;10409003;28;20302;-79
2021/04/12 16:38:29;;;;;;;5.80;2.60;;;;;;;;;;10400120;28;20236;-78
2021/04/12 16:43:37;;;;;;;6.10;2.40;;;;;;;;;;10403816;28;20216;-73
2021/04/12 16:48:40;;;;;;;4.97;2.20;;;;;;;;;;10380382;28;20578;-76
2021/04/12 16:53:47;;;;;;;5.38;2.30;;;;;;;;;;10402510;28;20455;-77
2021/04/12 16:58:54;;;;;;;4.07;2.20;;;;;;;;;;10396944;28;20388;-76
2021/04/12 17:03:59;;;;;;;5.93;2.67;;;;;;;;;;10412749;28;20222;-77
2021/04/12 17:09:07;;;;;;;5.57;2.87;;;;;;;;;;10412711;28;20216;-79
2021/04/12 17:14:13;;;;;;;5.50;2.70;;;;;;;;;;10406790;28;20222;-79
2021/04/12 17:19:20;;;;;;;7.27;2.73;;;;;;;;;;10397702;28;20280;-78
2021/04/12 17:24:24;;;;;;;6.37;2.63;;;;;;;;;;10393405;28;20220;-76
2021/04/12 17:29:30;;;;;;;3.80;2.20;;;;;;;;;;10398650;28;20220;-75
2021/04/12 17:34:35;;;;;;;3.70;1.97;;;;;;;;;;10413285;28;20208;-76
2021/04/12 17:39:40;;;;;;;5.43;1.90;;;;;;;;;;10410840;28;20652;-76
2021/04/12 17:44:44;;;;;;;7.73;1.97;;;;;;;;;;10406857;28;20224;-76
2021/04/12 17:49:48;;;;;;;6.17;2.30;;;;;;;;;;10404182;28;20230;-76
2021/04/12 17:54:58;;;;;;;3.87;1.90;;;;;;;;;;10413318;28;20216;-76
2021/04/12 18:00:02;;;;;;;6.33;2.00;;;;;;;;;;10409387;28;20595;-77
2021/04/12 18:05:06;;;;;;;6.47;1.97;;;;;;;;;;10417685;28;20317;-76
2021/04/12 18:10:14;;;;;;;5.00;2.00;;;;;;;;;;10417209;28;20242;-77
2021/04/12 18:15:20;;;;;;;5.83;1.97;;;;;;;;;;10405881;28;20704;-76
2021/04/12 18:20:24;;;;;;;5.07;1.97;;;;;;;;;;10411643;28;20235;-77
2021/04/12 18:25:29;;;;;;;4.73;1.53;;;;;;;;;;10401748;28;20655;-76
2021/04/12 18:30:33;;;;;;;6.17;1.90;;;;;;;;;;10410248;28;20606;-79
2021/04/12 18:35:43;;;;;;;4.50;2.00;;;;;;;;;;10408546;28;20437;-78
2021/04/12 18:40:58;;;;;;;4.10;2.03;;;;;;;;;;10411023;28;20397;-77
2021/04/12 18:46:22;;;;;;;5.43;1.93;;;;;;;;;;10401394;28;20384;-76
2021/04/12 18:51:36;;;;;;;4.90;2.23;;;;;;;;;;10411093;28;20706;-77
2021/04/12 18:56:40;;;;;;;7.93;2.63;;;;;;;;;;10404136;28;20582;-76
2021/04/12 19:01:51;;;;;;;6.20;1.97;;;;;;;;;;10403543;28;20626;-76
2021/04/12 19:06:56;;;;;;;3.90;1.80;;;;;;;;;;10403790;28;20538;-76
2021/04/12 19:12:05;;;;;;;6.17;2.00;;;;;;;;;;10412325;28;20331;-77
2021/04/12 19:17:14;;;;;;;6.87;2.50;;;;;;;;;;10397710;28;20216;-75
2021/04/12 19:22:19;;;;;;;5.10;2.13;;;;;;;;;;10406583;28;20549;-77
2021/04/12 19:27:26;;;;;;;5.07;1.90;;;;;;;;;;10401718;28;20664;-74
2021/04/12 19:32:38;;;;;;;3.73;1.60;;;;;;;;;;10406016;28;20218;-75
2021/04/12 19:37:50;;;;;;;5.37;2.10;;;;;;;;;;10401428;28;20727;-75
2021/04/12 19:42:57;;;;;;;7.87;2.00;;;;;;;;;;10401830;28;20295;-76
2021/04/12 19:48:11;;;;;;;8.33;2.10;;;;;;;;;;10386115;28;20219;-76
2021/04/12 19:53:28;;;;;;;9.03;2.57;;;;;;;;;;10404374;28;20218;-75
2021/04/12 19:58:34;;;;;;;6.40;1.97;;;;;;;;;;10390902;28;20254;-76
2021/04/12 20:03:44;;;;;;;4.57;2.23;;;;;;;;;;10400346;28;20219;-75
2021/04/12 20:08:48;;;;;;;7.47;2.30;;;;;;;;;;10401341;28;20274;-76
2021/04/12 20:13:53;;;;;;;8.53;2.70;;;;;;;;;;10405662;28;20634;-77
2021/04/12 20:19:11;;;;;;;8.93;2.53;;;;;;;;;;10399739;28;20231;-75
2021/04/12 20:24:34;;;;;;;7.07;2.63;;;;;;;;;;10403560;28;20371;-76
2021/04/12 20:29:38;;;;;;;5.83;2.53;;;;;;;;;;10405277;28;20234;-75
2021/04/12 20:34:46;;;;;;;9.03;2.60;;;;;;;;;;10407037;28;20531;-77
2021/04/12 20:39:49;;;;;;;6.17;2.43;;;;;;;;;;10402413;28;20239;-76
2021/04/12 20:45:09;;;;;;;6.47;2.10;;;;;;;;;;10402470;28;20486;-77
2021/04/12 20:50:19;;;;;;;6.87;1.83;;;;;;;;;;10398245;28;20211;-76
2021/04/12 20:55:23;;;;;;;5.53;1.90;;;;;;;;;;10410184;28;20213;-76
2021/04/12 21:00:38;;;;;;;4.23;1.80;;;;;;;;;;10406693;28;20239;-76
2021/04/12 21:05:45;;;;;;;5.50;2.20;;;;;;;;;;10414842;28;20826;-75
2021/04/12 21:10:47;;;;;;;7.33;2.00;;;;;;;;;;10411617;28;20224;-76
2021/04/12 21:15:50;;;;;;;6.07;2.40;;;;;;;;;;10415241;28;20841;-78
2021/04/12 21:20:55;;;;;;;6.37;2.33;;;;;;;;;;10415118;28;20694;-75
2021/04/12 21:25:58;;;;;;;7.87;2.20;;;;;;;;;;10420472;28;20226;-76
2021/04/12 21:31:02;;;;;;;4.00;1.93;;;;;;;;;;10412190;28;20227;-76
2021/04/12 21:36:11;;;;;;;5.90;2.07;;;;;;;;;;10418556;28;20353;-75
2021/04/12 21:41:15;;;;;;;8.10;2.20;;;;;;;;;;10418524;28;20258;-76
2021/04/12 21:46:23;;;;;;;6.87;2.10;;;;;;;;;;10410850;28;20669;-76
2021/04/12 21:51:30;;;;;;;4.50;2.20;;;;;;;;;;10419917;28;20676;-74
2021/04/12 21:56:38;;;;;;;6.67;2.10;;;;;;;;;;10411724;28;20238;-76
2021/04/12 22:01:44;;;;;;;4.43;1.80;;;;;;;;;;10417152;28;20764;-77
2021/04/12 22:06:49;;;;;;;5.50;1.80;;;;;;;;;;10418814;28;20203;-76
2021/04/12 22:11:55;;;;;;;5.83;1.80;;;;;;;;;;10417552;28;20219;-76
2021/04/12 22:17:02;;;;;;;6.33;1.93;;;;;;;;;;10413335;28;20215;-76
2021/04/12 22:22:08;;;;;;;2.70;1.43;;;;;;;;;;10409257;28;20240;-77
2021/04/12 22:27:12;;;;;;;2.53;1.43;;;;;;;;;;10415746;28;20208;-76
2021/04/12 22:32:24;;;;;;;5.90;1.73;;;;;;;;;;10407806;28;20227;-75
2021/04/12 22:42:52;;;;;;;5.33;1.60;;;;;;;;;;10408915;28;20211;-76
2021/04/12 22:47:58;;;;;;;3.63;1.73;;;;;;;;;;10414715;28;20219;-76
2021/04/12 22:53:16;;;;;;;2.10;1.40;;;;;;;;;;10415001;28;20309;-76
2021/04/12 22:58:33;;;;;;;3.30;1.60;;;;;;;;;;10410892;28;20723;-76
2021/04/12 23:03:56;;;;;;;3.37;1.60;;;;;;;;;;10414353;28;20208;-76
2021/04/12 23:09:12;;;;;;;3.83;1.70;;;;;;;;;;10399181;28;20218;-75
2021/04/12 23:14:22;;;;;;;4.70;1.50;;;;;;;;;;10408478;28;20226;-75
2021/04/12 23:19:30;;;;;;;2.17;1.40;;;;;;;;;;10412724;28;20231;-75
2021/04/12 23:24:34;;;;;;;3.87;1.53;;;;;;;;;;10414795;28;20219;-76
2021/04/12 23:29:40;;;;;;;2.83;1.57;;;;;;;;;;10409842;28;20222;-75
2021/04/12 23:34:43;;;;;;;7.63;1.60;;;;;;;;;;10412899;28;20208;-76
2021/04/12 23:39:45;;;;;;;4.17;1.67;;;;;;;;;;10405926;28;20345;-76
2021/04/12 23:44:53;;;;;;;6.20;1.60;;;;;;;;;;10410506;28;20572;-77
2021/04/12 23:49:55;;;;;;;2.20;1.47;;;;;;;;;;10408308;28;20227;-76
2021/04/12 23:54:56;;;;;;;3.73;1.50;;;;;;;;;;10417709;28;20226;-76
